sensor_id;sensor_type;location;lat;lon;timestamp;pressure;altitude;pressure_sealevel;temperature;humidity
16355;BME280;8287;51.644;8.494;2023-02-14T00:02:19;102328.03;;;4.95;88.52
16355;BME280;8287;51.644;8.494;2023-02-14T00:04:47;102327.78;;;4.97;88.51
16355;BME280;8287;51.644;8.494;2023-02-14T00:07:13;102330.44;;;4.97;88.30
16355;BME280;8287;51.644;8.494;2023-02-14T00:09:40;102326.19;;;4.96;87.50
16355;BME280;8287;51.644;8.494;2023-02-14T00:12:06;102337.44;;;4.85;87.82
16355;BME280;8287;51.644;8.494;2023-02-14T00:14:33;102325.97;;;4.79;88.06
16355;BME280;8287;51.644;8.494;2023-02-14T00:17:20;102333.47;;;4.76;88.37
16355;BME280;8287;51.644;8.494;2023-02-14T00:19:48;102341.94;;;4.78;88.46
16355;BME280;8287;51.644;8.494;2023-02-14T00:22:14;102342.22;;;4.70;88.40
16355;BME280;8287;51.644;8.494;2023-02-14T00:24:41;102346.72;;;4.63;88.18
16355;BME280;8287;51.644;8.494;2023-02-14T00:27:07;102345.69;;;4.64;88.67
16355;BME280;8287;51.644;8.494;2023-02-14T00:29:34;102345.31;;;4.60;88.67
16355;BME280;8287;51.644;8.494;2023-02-14T00:32:01;102336.50;;;4.55;88.81
16355;BME280;8287;51.644;8.494;2023-02-14T00:34:28;102336.94;;;4.52;89.22
16355;BME280;8287;51.644;8.494;2023-02-14T00:36:56;102339.72;;;4.57;89.07
16355;BME280;8287;51.644;8.494;2023-02-14T00:39:32;102336.06;;;4.58;89.00
16355;BME280;8287;51.644;8.494;2023-02-14T00:41:59;102332.84;;;4.56;89.38
16355;BME280;8287;51.644;8.494;2023-02-14T00:44:25;102332.00;;;4.62;88.76
16355;BME280;8287;51.644;8.494;2023-02-14T00:46:52;102328.56;;;4.61;87.95
16355;BME280;8287;51.644;8.494;2023-02-14T00:49:18;102339.13;;;4.55;88.51
16355;BME280;8287;51.644;8.494;2023-02-14T00:51:45;102341.81;;;4.48;88.62
16355;BME280;8287;51.644;8.494;2023-02-14T00:54:13;102347.69;;;4.44;88.56
16355;BME280;8287;51.644;8.494;2023-02-14T00:56:39;102348.97;;;4.35;89.00
16355;BME280;8287;51.644;8.494;2023-02-14T00:59:06;102343.09;;;4.39;89.15
16355;BME280;8287;51.644;8.494;2023-02-14T01:01:33;102346.47;;;4.46;88.74
16355;BME280;8287;51.644;8.494;2023-02-14T01:03:59;102354.97;;;4.42;88.88
16355;BME280;8287;51.644;8.494;2023-02-14T01:06:26;102339.25;;;4.42;88.71
16355;BME280;8287;51.644;8.494;2023-02-14T01:08:52;102349.28;;;4.45;88.78
16355;BME280;8287;51.644;8.494;2023-02-14T01:11:21;102365.41;;;4.48;89.48
16355;BME280;8287;51.644;8.494;2023-02-14T01:13:50;102355.78;;;4.42;89.54
16355;BME280;8287;51.644;8.494;2023-02-14T01:16:18;102362.88;;;4.35;89.79
16355;BME280;8287;51.644;8.494;2023-02-14T01:18:45;102357.06;;;4.33;89.79
16355;BME280;8287;51.644;8.494;2023-02-14T01:21:15;102350.91;;;4.46;89.93
16355;BME280;8287;51.644;8.494;2023-02-14T01:23:43;102354.06;;;4.30;88.74
16355;BME280;8287;51.644;8.494;2023-02-14T01:26:11;102354.50;;;4.27;89.43
16355;BME280;8287;51.644;8.494;2023-02-14T01:28:39;102366.19;;;4.24;89.50
16355;BME280;8287;51.644;8.494;2023-02-14T01:31:08;102363.63;;;4.18;89.44
16355;BME280;8287;51.644;8.494;2023-02-14T01:33:35;102353.56;;;4.15;89.62
16355;BME280;8287;51.644;8.494;2023-02-14T01:36:02;102356.56;;;4.18;89.65
16355;BME280;8287;51.644;8.494;2023-02-14T01:38:29;102355.13;;;4.22;89.61
16355;BME280;8287;51.644;8.494;2023-02-14T01:40:55;102349.31;;;4.14;89.58
16355;BME280;8287;51.644;8.494;2023-02-14T01:43:22;102346.94;;;4.12;89.50
16355;BME280;8287;51.644;8.494;2023-02-14T01:45:50;102352.50;;;4.22;89.06
16355;BME280;8287;51.644;8.494;2023-02-14T01:48:18;102350.72;;;4.16;88.03
16355;BME280;8287;51.644;8.494;2023-02-14T01:50:46;102355.59;;;4.13;88.11
16355;BME280;8287;51.644;8.494;2023-02-14T01:53:16;102349.00;;;4.04;88.46
16355;BME280;8287;51.644;8.494;2023-02-14T01:55:46;102347.38;;;4.03;88.72
16355;BME280;8287;51.644;8.494;2023-02-14T01:58:19;102350.25;;;3.95;88.75
16355;BME280;8287;51.644;8.494;2023-02-14T02:00:46;102338.59;;;3.91;89.52
16355;BME280;8287;51.644;8.494;2023-02-14T02:03:26;102339.56;;;3.96;89.69
16355;BME280;8287;51.644;8.494;2023-02-14T02:05:56;102334.97;;;3.92;89.57
16355;BME280;8287;51.644;8.494;2023-02-14T02:08:23;102342.59;;;3.93;89.41
16355;BME280;8287;51.644;8.494;2023-02-14T02:10:49;102339.19;;;3.93;89.60
16355;BME280;8287;51.644;8.494;2023-02-14T02:13:18;102336.56;;;3.93;89.87
16355;BME280;8287;51.644;8.494;2023-02-14T02:15:52;102334.78;;;3.87;90.07
16355;BME280;8287;51.644;8.494;2023-02-14T02:18:32;102332.09;;;3.93;89.93
16355;BME280;8287;51.644;8.494;2023-02-14T02:24:13;102320.97;;;3.98;89.75
16355;BME280;8287;51.644;8.494;2023-02-14T02:27:09;102317.19;;;3.94;89.02
16355;BME280;8287;51.644;8.494;2023-02-14T02:30:02;102327.50;;;3.89;89.00
16355;BME280;8287;51.644;8.494;2023-02-14T02:32:51;102315.84;;;3.85;89.23
16355;BME280;8287;51.644;8.494;2023-02-14T02:35:35;102314.63;;;3.81;89.64
16355;BME280;8287;51.644;8.494;2023-02-14T02:38:16;102309.00;;;3.84;89.76
16355;BME280;8287;51.644;8.494;2023-02-14T02:40:49;102297.47;;;3.85;89.79
16355;BME280;8287;51.644;8.494;2023-02-14T02:43:29;102298.72;;;3.82;89.21
16355;BME280;8287;51.644;8.494;2023-02-14T02:46:01;102292.06;;;3.80;89.49
16355;BME280;8287;51.644;8.494;2023-02-14T02:48:52;102293.84;;;3.86;89.16
16355;BME280;8287;51.644;8.494;2023-02-14T02:51:26;102297.22;;;3.93;88.76
16355;BME280;8287;51.644;8.494;2023-02-14T02:54:19;102291.22;;;3.86;87.83
16355;BME280;8287;51.644;8.494;2023-02-14T02:56:53;102286.03;;;3.79;88.22
16355;BME280;8287;51.644;8.494;2023-02-14T02:59:23;102288.66;;;3.73;88.60
16355;BME280;8287;51.644;8.494;2023-02-14T03:01:56;102296.38;;;3.68;88.65
16355;BME280;8287;51.644;8.494;2023-02-14T03:04:25;102288.72;;;3.66;88.71
16355;BME280;8287;51.644;8.494;2023-02-14T03:07:12;102288.97;;;3.58;89.39
16355;BME280;8287;51.644;8.494;2023-02-14T03:09:57;102289.00;;;3.52;89.31
16355;BME280;8287;51.644;8.494;2023-02-14T03:13:08;102289.06;;;3.45;89.43
16355;BME280;8287;51.644;8.494;2023-02-14T03:18:59;102284.06;;;3.37;89.14
16355;BME280;8287;51.644;8.494;2023-02-14T03:21:53;102278.38;;;3.40;89.32
16355;BME280;8287;51.644;8.494;2023-02-14T03:24:28;102283.22;;;3.37;89.49
16355;BME280;8287;51.644;8.494;2023-02-14T03:27:02;102273.34;;;3.39;89.74
16355;BME280;8287;51.644;8.494;2023-02-14T03:29:40;102275.97;;;3.39;89.02
16355;BME280;8287;51.644;8.494;2023-02-14T03:32:13;102274.41;;;3.31;88.99
16355;BME280;8287;51.644;8.494;2023-02-14T03:34:47;102269.78;;;3.27;89.76
16355;BME280;8287;51.644;8.494;2023-02-14T03:37:23;102258.88;;;3.30;90.09
16355;BME280;8287;51.644;8.494;2023-02-14T03:39:59;102251.44;;;3.27;90.39
16355;BME280;8287;51.644;8.494;2023-02-14T03:42:32;102250.44;;;3.28;90.08
16355;BME280;8287;51.644;8.494;2023-02-14T03:45:02;102246.22;;;3.27;90.27
16355;BME280;8287;51.644;8.494;2023-02-14T03:47:32;102243.78;;;3.32;90.62
16355;BME280;8287;51.644;8.494;2023-02-14T03:50:06;102242.97;;;3.31;90.59
16355;BME280;8287;51.644;8.494;2023-02-14T03:52:35;102240.53;;;3.30;89.98
16355;BME280;8287;51.644;8.494;2023-02-14T03:55:06;102232.91;;;3.28;90.50
16355;BME280;8287;51.644;8.494;2023-02-14T03:57:36;102240.38;;;3.25;90.13
16355;BME280;8287;51.644;8.494;2023-02-14T04:00:07;102243.16;;;3.30;90.45
16355;BME280;8287;51.644;8.494;2023-02-14T04:02:38;102235.28;;;3.36;90.38
16355;BME280;8287;51.644;8.494;2023-02-14T04:05:08;102231.22;;;3.40;89.84
16355;BME280;8287;51.644;8.494;2023-02-14T04:07:43;102236.31;;;3.35;89.74
16355;BME280;8287;51.644;8.494;2023-02-14T04:10:12;102242.09;;;3.44;89.90
16355;BME280;8287;51.644;8.494;2023-02-14T04:12:38;102241.25;;;3.50;89.59
16355;BME280;8287;51.644;8.494;2023-02-14T04:15:06;102242.44;;;3.54;89.02
16355;BME280;8287;51.644;8.494;2023-02-14T04:17:32;102242.09;;;3.44;88.56
16355;BME280;8287;51.644;8.494;2023-02-14T04:20:17;102245.78;;;3.36;88.66
16355;BME280;8287;51.644;8.494;2023-02-14T04:22:43;102238.16;;;3.28;88.55
16355;BME280;8287;51.644;8.494;2023-02-14T04:25:12;102237.19;;;3.23;88.81
16355;BME280;8287;51.644;8.494;2023-02-14T04:27:39;102236.84;;;3.07;89.02
16355;BME280;8287;51.644;8.494;2023-02-14T04:30:07;102227.19;;;3.07;89.28
16355;BME280;8287;51.644;8.494;2023-02-14T04:32:34;102230.81;;;3.06;89.49
16355;BME280;8287;51.644;8.494;2023-02-14T04:35:01;102232.81;;;3.04;89.18
16355;BME280;8287;51.644;8.494;2023-02-14T04:37:27;102229.59;;;3.02;89.44
16355;BME280;8287;51.644;8.494;2023-02-14T04:39:54;102233.03;;;2.96;89.64
16355;BME280;8287;51.644;8.494;2023-02-14T04:42:22;102237.06;;;2.99;89.65
16355;BME280;8287;51.644;8.494;2023-02-14T04:44:48;102230.06;;;2.86;89.60
16355;BME280;8287;51.644;8.494;2023-02-14T04:47:15;102220.81;;;2.90;90.44
16355;BME280;8287;51.644;8.494;2023-02-14T04:49:41;102227.41;;;2.93;90.51
16355;BME280;8287;51.644;8.494;2023-02-14T04:52:08;102225.63;;;2.93;90.32
16355;BME280;8287;51.644;8.494;2023-02-14T04:54:34;102220.97;;;2.95;90.84
16355;BME280;8287;51.644;8.494;2023-02-14T04:57:01;102211.50;;;2.94;91.00
16355;BME280;8287;51.644;8.494;2023-02-14T04:59:29;102213.72;;;2.97;90.94
16355;BME280;8287;51.644;8.494;2023-02-14T05:01:56;102210.88;;;2.99;91.19
16355;BME280;8287;51.644;8.494;2023-02-14T05:04:22;102214.91;;;3.01;90.98
16355;BME280;8287;51.644;8.494;2023-02-14T05:06:49;102211.88;;;3.04;91.02
16355;BME280;8287;51.644;8.494;2023-02-14T05:09:15;102209.25;;;3.04;90.79
16355;BME280;8287;51.644;8.494;2023-02-14T05:11:42;102215.88;;;3.07;90.62
16355;BME280;8287;51.644;8.494;2023-02-14T05:14:08;102210.03;;;3.11;90.41
16355;BME280;8287;51.644;8.494;2023-02-14T05:16:36;102213.84;;;3.15;90.02
16355;BME280;8287;51.644;8.494;2023-02-14T05:19:03;102217.63;;;3.19;89.67
16355;BME280;8287;51.644;8.494;2023-02-14T05:21:30;102211.63;;;3.12;89.16
16355;BME280;8287;51.644;8.494;2023-02-14T05:23:57;102209.00;;;3.12;89.48
16355;BME280;8287;51.644;8.494;2023-02-14T05:26:24;102213.22;;;3.13;89.09
16355;BME280;8287;51.644;8.494;2023-02-14T05:28:50;102212.06;;;3.09;89.39
16355;BME280;8287;51.644;8.494;2023-02-14T05:31:17;102210.69;;;3.00;89.87
16355;BME280;8287;51.644;8.494;2023-02-14T05:33:45;102201.44;;;2.98;90.78
16355;BME280;8287;51.644;8.494;2023-02-14T05:36:12;102211.72;;;2.99;90.94
16355;BME280;8287;51.644;8.494;2023-02-14T05:38:38;102219.94;;;3.03;90.76
16355;BME280;8287;51.644;8.494;2023-02-14T05:41:05;102205.66;;;2.99;90.49
16355;BME280;8287;51.644;8.494;2023-02-14T05:43:31;102212.91;;;2.97;90.96
16355;BME280;8287;51.644;8.494;2023-02-14T05:45:58;102208.47;;;2.97;91.19
16355;BME280;8287;51.644;8.494;2023-02-14T05:48:25;102203.22;;;2.97;90.92
16355;BME280;8287;51.644;8.494;2023-02-14T05:50:53;102203.22;;;2.97;90.99
16355;BME280;8287;51.644;8.494;2023-02-14T05:53:19;102207.09;;;2.88;91.01
16355;BME280;8287;51.644;8.494;2023-02-14T05:55:46;102208.94;;;2.88;91.19
16355;BME280;8287;51.644;8.494;2023-02-14T05:58:13;102206.25;;;3.01;91.19
16355;BME280;8287;51.644;8.494;2023-02-14T06:00:39;102207.31;;;2.87;90.69
16355;BME280;8287;51.644;8.494;2023-02-14T06:03:06;102203.66;;;2.94;91.21
16355;BME280;8287;51.644;8.494;2023-02-14T06:05:33;102199.78;;;3.03;91.22
16355;BME280;8287;51.644;8.494;2023-02-14T06:08:00;102195.13;;;3.12;91.86
16355;BME280;8287;51.644;8.494;2023-02-14T06:10:27;102201.50;;;3.22;91.64
16355;BME280;8287;51.644;8.494;2023-02-14T06:12:54;102197.66;;;3.24;91.93
16355;BME280;8287;51.644;8.494;2023-02-14T06:15:21;102193.78;;;3.33;92.44
16355;BME280;8287;51.644;8.494;2023-02-14T06:17:51;102205.66;;;3.36;91.77
16355;BME280;8287;51.644;8.494;2023-02-14T06:20:18;102205.66;;;3.36;91.07
16355;BME280;8287;51.644;8.494;2023-02-14T06:22:45;102205.47;;;3.37;90.68
16355;BME280;8287;51.644;8.494;2023-02-14T06:25:13;102200.72;;;3.21;90.63
16355;BME280;8287;51.644;8.494;2023-02-14T06:27:40;102213.22;;;3.19;90.86
16355;BME280;8287;51.644;8.494;2023-02-14T06:30:08;102215.22;;;3.24;90.65
16355;BME280;8287;51.644;8.494;2023-02-14T06:32:35;102213.19;;;3.26;90.58
16355;BME280;8287;51.644;8.494;2023-02-14T06:35:01;102216.59;;;3.26;89.96
16355;BME280;8287;51.644;8.494;2023-02-14T06:37:28;102222.25;;;3.23;89.99
16355;BME280;8287;51.644;8.494;2023-02-14T06:39:55;102220.88;;;3.14;89.87
16355;BME280;8287;51.644;8.494;2023-02-14T06:42:23;102224.56;;;3.07;89.83
16355;BME280;8287;51.644;8.494;2023-02-14T06:44:50;102227.56;;;3.11;89.83
16355;BME280;8287;51.644;8.494;2023-02-14T06:47:16;102230.19;;;3.04;90.18
16355;BME280;8287;51.644;8.494;2023-02-14T06:49:43;102237.66;;;3.01;90.76
16355;BME280;8287;51.644;8.494;2023-02-14T06:52:10;102236.06;;;3.06;90.53
16355;BME280;8287;51.644;8.494;2023-02-14T06:54:36;102230.81;;;3.00;90.27
16355;BME280;8287;51.644;8.494;2023-02-14T06:57:03;102233.66;;;2.92;90.27
16355;BME280;8287;51.644;8.494;2023-02-14T06:59:31;102229.44;;;2.91;90.71
16355;BME280;8287;51.644;8.494;2023-02-14T07:01:57;102225.38;;;3.01;91.17
16355;BME280;8287;51.644;8.494;2023-02-14T07:04:24;102223.75;;;3.07;90.48
16355;BME280;8287;51.644;8.494;2023-02-14T07:06:50;102232.22;;;3.02;90.15
16355;BME280;8287;51.644;8.494;2023-02-14T07:09:17;102227.41;;;2.99;90.75
16355;BME280;8287;51.644;8.494;2023-02-14T07:11:44;102223.75;;;3.07;90.76
16355;BME280;8287;51.644;8.494;2023-02-14T07:14:11;102231.00;;;3.05;90.48
16355;BME280;8287;51.644;8.494;2023-02-14T07:16:39;102226.16;;;3.08;90.32
16355;BME280;8287;51.644;8.494;2023-02-14T07:19:06;102232.00;;;3.10;90.79
16355;BME280;8287;51.644;8.494;2023-02-14T07:21:32;102221.75;;;3.02;91.14
16355;BME280;8287;51.644;8.494;2023-02-14T07:23:59;102230.03;;;2.99;91.48
16355;BME280;8287;51.644;8.494;2023-02-14T07:26:26;102229.81;;;3.07;92.08
16355;BME280;8287;51.644;8.494;2023-02-14T07:28:53;102241.81;;;3.21;91.41
16355;BME280;8287;51.644;8.494;2023-02-14T07:31:19;102243.00;;;3.25;91.39
16355;BME280;8287;51.644;8.494;2023-02-14T07:33:49;102232.69;;;3.36;91.25
16355;BME280;8287;51.644;8.494;2023-02-14T07:36:16;102225.19;;;3.40;91.10
16355;BME280;8287;51.644;8.494;2023-02-14T07:38:43;102231.84;;;3.36;91.89
16355;BME280;8287;51.644;8.494;2023-02-14T07:41:09;102232.63;;;3.43;91.83
16355;BME280;8287;51.644;8.494;2023-02-14T07:43:36;102233.22;;;3.45;92.16
16355;BME280;8287;51.644;8.494;2023-02-14T07:46:04;102234.63;;;3.47;92.48
16355;BME280;8287;51.644;8.494;2023-02-14T07:48:30;102233.94;;;3.58;92.64
16355;BME280;8287;51.644;8.494;2023-02-14T07:50:58;102222.59;;;3.64;92.70
16355;BME280;8287;51.644;8.494;2023-02-14T07:53:25;102227.72;;;3.84;92.44
16355;BME280;8287;51.644;8.494;2023-02-14T07:55:52;102221.50;;;4.03;92.77
16355;BME280;8287;51.644;8.494;2023-02-14T07:58:18;102225.06;;;4.33;92.94
16355;BME280;8287;51.644;8.494;2023-02-14T08:00:45;102216.03;;;4.47;92.58
16355;BME280;8287;51.644;8.494;2023-02-14T08:03:12;102219.84;;;4.69;92.67
16355;BME280;8287;51.644;8.494;2023-02-14T08:05:39;102212.47;;;4.95;92.17
16355;BME280;8287;51.644;8.494;2023-02-14T08:08:07;102210.75;;;5.19;91.30
16355;BME280;8287;51.644;8.494;2023-02-14T08:10:34;102212.19;;;5.44;91.17
16355;BME280;8287;51.644;8.494;2023-02-14T08:13:01;102211.91;;;5.64;90.45
16355;BME280;8287;51.644;8.494;2023-02-14T08:15:29;102209.66;;;5.79;90.40
16355;BME280;8287;51.644;8.494;2023-02-14T08:18:15;102196.91;;;5.94;90.09
16355;BME280;8287;51.644;8.494;2023-02-14T08:20:42;102197.34;;;6.25;89.84
16355;BME280;8287;51.644;8.494;2023-02-14T08:23:10;102201.44;;;6.55;89.45
16355;BME280;8287;51.644;8.494;2023-02-14T08:25:37;102194.63;;;6.82;88.89
16355;BME280;8287;51.644;8.494;2023-02-14T08:28:05;102195.03;;;7.02;87.65
16355;BME280;8287;51.644;8.494;2023-02-14T08:30:32;102191.63;;;7.18;87.47
16355;BME280;8287;51.644;8.494;2023-02-14T08:33:01;102191.09;;;7.33;86.48
16355;BME280;8287;51.644;8.494;2023-02-14T08:35:27;102196.47;;;7.38;85.56
16355;BME280;8287;51.644;8.494;2023-02-14T08:37:54;102195.94;;;7.24;84.24
16355;BME280;8287;51.644;8.494;2023-02-14T08:40:22;102193.50;;;7.34;84.02
16355;BME280;8287;51.644;8.494;2023-02-14T08:42:48;102199.28;;;7.48;84.15
16355;BME280;8287;51.644;8.494;2023-02-14T08:45:15;102193.63;;;7.56;83.84
16355;BME280;8287;51.644;8.494;2023-02-14T08:47:41;102199.06;;;7.66;83.97
16355;BME280;8287;51.644;8.494;2023-02-14T08:50:10;102191.06;;;7.77;84.17
16355;BME280;8287;51.644;8.494;2023-02-14T08:52:37;102190.09;;;7.83;83.85
16355;BME280;8287;51.644;8.494;2023-02-14T08:55:04;102190.19;;;8.05;83.90
16355;BME280;8287;51.644;8.494;2023-02-14T08:57:32;102192.75;;;8.00;83.28
16355;BME280;8287;51.644;8.494;2023-02-14T08:59:59;102190.09;;;8.00;83.44
16355;BME280;8287;51.644;8.494;2023-02-14T09:02:26;102196.03;;;8.07;83.50
16355;BME280;8287;51.644;8.494;2023-02-14T09:04:52;102195.75;;;8.08;83.47
16355;BME280;8287;51.644;8.494;2023-02-14T09:07:19;102196.88;;;8.12;83.59
16355;BME280;8287;51.644;8.494;2023-02-14T09:09:45;102188.47;;;8.15;84.42
16355;BME280;8287;51.644;8.494;2023-02-14T09:12:12;102190.88;;;8.17;84.12
16355;BME280;8287;51.644;8.494;2023-02-14T09:14:42;102190.19;;;8.21;84.60
16355;BME280;8287;51.644;8.494;2023-02-14T09:17:09;102192.41;;;8.29;84.45
16355;BME280;8287;51.644;8.494;2023-02-14T09:19:36;102191.44;;;8.35;84.40
16355;BME280;8287;51.644;8.494;2023-02-14T09:22:04;102191.56;;;8.45;85.04
16355;BME280;8287;51.644;8.494;2023-02-14T09:24:31;102194.34;;;8.55;84.75
16355;BME280;8287;51.644;8.494;2023-02-14T09:26:58;102192.88;;;8.64;84.68
16355;BME280;8287;51.644;8.494;2023-02-14T09:29:26;102184.28;;;8.74;84.33
16355;BME280;8287;51.644;8.494;2023-02-14T09:31:56;102187.72;;;8.74;84.30
16355;BME280;8287;51.644;8.494;2023-02-14T09:34:23;102191.47;;;8.78;84.58
16355;BME280;8287;51.644;8.494;2023-02-14T09:36:50;102189.84;;;8.99;84.31
16355;BME280;8287;51.644;8.494;2023-02-14T09:39:17;102195.75;;;9.06;83.89
16355;BME280;8287;51.644;8.494;2023-02-14T09:44:57;102201.75;;;9.23;83.28
16355;BME280;8287;51.644;8.494;2023-02-14T09:47:33;102192.16;;;9.43;82.98
16355;BME280;8287;51.644;8.494;2023-02-14T09:50:03;102200.44;;;9.52;83.21
16355;BME280;8287;51.644;8.494;2023-02-14T09:52:31;102196.13;;;9.72;82.96
16355;BME280;8287;51.644;8.494;2023-02-14T09:55:00;102192.53;;;9.88;82.69
16355;BME280;8287;51.644;8.494;2023-02-14T09:57:35;102186.56;;;10.02;82.26
16355;BME280;8287;51.644;8.494;2023-02-14T10:00:15;102191.63;;;10.09;81.10
16355;BME280;8287;51.644;8.494;2023-02-14T10:02:52;102189.38;;;10.27;81.42
16355;BME280;8287;51.644;8.494;2023-02-14T10:05:24;102189.56;;;10.16;80.49
16355;BME280;8287;51.644;8.494;2023-02-14T10:07:57;102185.22;;;10.46;80.27
16355;BME280;8287;51.644;8.494;2023-02-14T10:10:27;102185.34;;;10.66;79.93
16355;BME280;8287;51.644;8.494;2023-02-14T10:13:02;102182.47;;;10.83;79.29
16355;BME280;8287;51.644;8.494;2023-02-14T10:15:32;102188.09;;;11.01;78.74
16355;BME280;8287;51.644;8.494;2023-02-14T10:18:03;102178.59;;;11.10;77.61
16355;BME280;8287;51.644;8.494;2023-02-14T10:20:36;102182.75;;;10.86;75.47
16355;BME280;8287;51.644;8.494;2023-02-14T10:23:10;102176.06;;;10.64;73.76
16355;BME280;8287;51.644;8.494;2023-02-14T10:25:47;102175.69;;;11.12;76.63
16355;BME280;8287;51.644;8.494;2023-02-14T10:28:24;102180.47;;;11.30;75.27
16355;BME280;8287;51.644;8.494;2023-02-14T10:30:57;102188.97;;;11.32;74.48
16355;BME280;8287;51.644;8.494;2023-02-14T10:33:30;102180.47;;;11.25;74.85
16355;BME280;8287;51.644;8.494;2023-02-14T10:36:03;102163.28;;;11.62;74.81
16355;BME280;8287;51.644;8.494;2023-02-14T10:38:39;102177.34;;;11.73;73.57
16355;BME280;8287;51.644;8.494;2023-02-14T10:41:21;102175.75;;;11.87;74.10
16355;BME280;8287;51.644;8.494;2023-02-14T10:43:56;102171.72;;;12.09;73.92
16355;BME280;8287;51.644;8.494;2023-02-14T10:46:33;102163.72;;;12.19;73.24
16355;BME280;8287;51.644;8.494;2023-02-14T10:49:15;102164.28;;;12.11;71.87
16355;BME280;8287;51.644;8.494;2023-02-14T10:51:49;102166.06;;;12.36;69.87
16355;BME280;8287;51.644;8.494;2023-02-14T10:54:19;102172.66;;;12.53;70.80
16355;BME280;8287;51.644;8.494;2023-02-14T10:56:52;102161.81;;;12.35;65.02
16355;BME280;8287;51.644;8.494;2023-02-14T10:59:24;102169.69;;;12.65;67.38
16355;BME280;8287;51.644;8.494;2023-02-14T11:01:54;102165.63;;;12.77;67.62
16355;BME280;8287;51.644;8.494;2023-02-14T11:04:23;102158.75;;;12.71;66.46
16355;BME280;8287;51.644;8.494;2023-02-14T11:06:51;102163.44;;;12.94;64.86
16355;BME280;8287;51.644;8.494;2023-02-14T11:09:18;102156.31;;;12.80;65.17
16355;BME280;8287;51.644;8.494;2023-02-14T11:11:48;102151.19;;;12.93;65.42
16355;BME280;8287;51.644;8.494;2023-02-14T11:14:22;102156.69;;;13.12;67.61
16355;BME280;8287;51.644;8.494;2023-02-14T11:16:49;102156.22;;;13.38;68.17
16355;BME280;8287;51.644;8.494;2023-02-14T11:19:26;102141.97;;;13.57;68.25
16355;BME280;8287;51.644;8.494;2023-02-14T11:21:54;102137.25;;;13.49;65.17
16355;BME280;8287;51.644;8.494;2023-02-14T11:24:27;102135.19;;;13.70;66.55
16355;BME280;8287;51.644;8.494;2023-02-14T11:26:57;102128.19;;;13.79;67.04
16355;BME280;8287;51.644;8.494;2023-02-14T11:29:27;102124.06;;;13.91;64.59
16355;BME280;8287;51.644;8.494;2023-02-14T11:31:55;102125.53;;;14.02;67.25
16355;BME280;8287;51.644;8.494;2023-02-14T11:34:34;102115.69;;;14.26;65.19
16355;BME280;8287;51.644;8.494;2023-02-14T11:37:15;102118.31;;;14.31;65.50
16355;BME280;8287;51.644;8.494;2023-02-14T11:39:42;102115.66;;;14.31;63.02
16355;BME280;8287;51.644;8.494;2023-02-14T11:42:11;102112.19;;;14.31;63.10
16355;BME280;8287;51.644;8.494;2023-02-14T11:44:52;102103.72;;;14.24;63.66
16355;BME280;8287;51.644;8.494;2023-02-14T11:47:25;102099.88;;;14.35;62.89
16355;BME280;8287;51.644;8.494;2023-02-14T11:49:58;102090.22;;;14.39;63.31
16355;BME280;8287;51.644;8.494;2023-02-14T11:52:26;102089.06;;;14.45;63.75
16355;BME280;8287;51.644;8.494;2023-02-14T11:54:55;102082.81;;;14.54;62.58
16355;BME280;8287;51.644;8.494;2023-02-14T11:57:24;102081.38;;;14.62;64.04
16355;BME280;8287;51.644;8.494;2023-02-14T11:59:54;102078.75;;;14.38;61.88
16355;BME280;8287;51.644;8.494;2023-02-14T12:02:25;102077.41;;;14.59;63.19
16355;BME280;8287;51.644;8.494;2023-02-14T12:04:55;102073.50;;;14.70;63.62
16355;BME280;8287;51.644;8.494;2023-02-14T12:07:27;102074.03;;;14.72;61.73
16355;BME280;8287;51.644;8.494;2023-02-14T12:10:16;102064.28;;;14.81;61.85
16355;BME280;8287;51.644;8.494;2023-02-14T12:12:55;102064.47;;;15.03;61.84
16355;BME280;8287;51.644;8.494;2023-02-14T12:15:27;102060.25;;;14.84;61.09
16355;BME280;8287;51.644;8.494;2023-02-14T12:18:01;102058.38;;;15.16;60.42
16355;BME280;8287;51.644;8.494;2023-02-14T12:20:38;102057.44;;;15.26;59.25
16355;BME280;8287;51.644;8.494;2023-02-14T12:23:14;102050.31;;;15.21;59.58
16355;BME280;8287;51.644;8.494;2023-02-14T12:25:45;102047.97;;;15.33;58.78
16355;BME280;8287;51.644;8.494;2023-02-14T12:28:16;102044.97;;;15.80;59.90
16355;BME280;8287;51.644;8.494;2023-02-14T12:30:45;102041.22;;;15.95;57.89
16355;BME280;8287;51.644;8.494;2023-02-14T12:33:17;102038.81;;;15.93;57.80
16355;BME280;8287;51.644;8.494;2023-02-14T12:35:53;102031.16;;;16.41;58.20
16355;BME280;8287;51.644;8.494;2023-02-14T12:38:29;102023.50;;;16.83;59.11
16355;BME280;8287;51.644;8.494;2023-02-14T12:41:16;102026.84;;;17.10;56.13
16355;BME280;8287;51.644;8.494;2023-02-14T12:43:48;102016.84;;;17.02;54.41
16355;BME280;8287;51.644;8.494;2023-02-14T12:46:34;102018.22;;;17.44;54.94
16355;BME280;8287;51.644;8.494;2023-02-14T12:52:20;102003.06;;;17.78;53.29
16355;BME280;8287;51.644;8.494;2023-02-14T12:55:04;101993.22;;;17.57;51.75
16355;BME280;8287;51.644;8.494;2023-02-14T12:57:45;101986.97;;;17.78;52.95
16355;BME280;8287;51.644;8.494;2023-02-14T13:00:22;101989.38;;;17.97;52.48
16355;BME280;8287;51.644;8.494;2023-02-14T13:03:36;101979.75;;;17.87;48.72
16355;BME280;8287;51.644;8.494;2023-02-14T13:06:09;101975.94;;;17.88;50.77
16355;BME280;8287;51.644;8.494;2023-02-14T13:08:58;101976.41;;;17.82;50.89
16355;BME280;8287;51.644;8.494;2023-02-14T13:11:35;101965.41;;;18.09;49.90
16355;BME280;8287;51.644;8.494;2023-02-14T13:14:13;101954.81;;;18.04;51.65
16355;BME280;8287;51.644;8.494;2023-02-14T13:16:48;101958.50;;;18.50;51.38
16355;BME280;8287;51.644;8.494;2023-02-14T13:19:30;101952.50;;;18.53;49.25
16355;BME280;8287;51.644;8.494;2023-02-14T13:22:01;101954.72;;;18.43;49.40
16355;BME280;8287;51.644;8.494;2023-02-14T13:24:34;101946.63;;;18.68;50.01
16355;BME280;8287;51.644;8.494;2023-02-14T13:27:07;101946.38;;;18.44;48.71
16355;BME280;8287;51.644;8.494;2023-02-14T13:29:43;101948.88;;;18.32;50.25
16355;BME280;8287;51.644;8.494;2023-02-14T13:32:14;101947.91;;;18.54;47.63
16355;BME280;8287;51.644;8.494;2023-02-14T13:34:44;101940.81;;;18.58;48.56
16355;BME280;8287;51.644;8.494;2023-02-14T13:37:13;101935.72;;;18.73;48.86
16355;BME280;8287;51.644;8.494;2023-02-14T13:39:44;101928.59;;;18.77;49.00